Oregon, OH (43616)

12:20 AM EDT on September 21, 2014 (GMT -0400)
KOHOREGO3 | Change Station
CLOSE
Current Station
Personal Weather Station
Location: Oregon, OH
Elevation: 591 ft
Nearby Weather Stations

Elev 591 ft 41.63 °N, 83.44 °W | Updated 3 seconds ago

Mostly Cloudy
Mostly Cloudy
64.4 °F
Feels Like 64.4 °F
N
7.0
Wind Variable Wind from SSW
Gusts 10.0 mph

Today
High -- | Low -- °F
--% Chance of Precip.
Yesterday
High -- | Low -- °F
Precip. -- in
7:20 AM 7:32 PM
Waning Crescent, 9% visible
Pressure 29.83 in
Visibility 10.0 miles
Clouds Few 3100 ft
Scattered Clouds 6000 ft
Dew Point 62 °F
Humidity 92%
Rainfall 0.00 in
Snow Depth Not available.
UV 0 out of 12
Pollen 4.80 out of 12
Air Quality Not available.
Flu Activity Not available.
METAR KTDZ 210353Z AUTO 21011KT 10SM FEW031 SCT060 18/16 A2984 RMK AO2 SLP099 T01830161 TSNO

More Conditions Fewer Conditions

Pressure 29.83 in
Visibility 10.0 miles
Clouds Few 3100 ft
Scattered Clouds 6000 ft
Dew Point 62 °F
Humidity 92%
Rainfall 0.00 in
Snow Depth Not available.
UV 0 out of 12
Pollen 4.80 out of 12
Air Quality Not available.
Flu Activity Not available.
METAR KTDZ 210353Z AUTO 21011KT 10SM FEW031 SCT060 18/16 A2984 RMK AO2 SLP099 T01830161 TSNO

More Conditions Fewer Conditions

10-Day Weather Forecast

Almanac

Astronomy

Sep. 21, 2014 Rise Set
Actual Time 7:20 AM EDT 7:32 PM EDT
Civil Twilight 6:52 AM EDT 8:00 PM EDT
Nautical Twilight 6:19 AM EDT 8:32 PM EDT
Astronomical Twilight 5:46 AM EDT 9:06 PM EDT
Moon 4:51 AM EDT 6:09 PM EDT
Length of Visible Light 13h 08m
Length of Day
12h 12m
Tomorrow will be 2m 46s shorter.
Waning Crescent, 9% of the Moon is Illuminated
Today
Waning Crescent
Sep 24
New
Oct 1
First Quarter
Oct 8
Full
Oct 15
Last Quarter

Yesterday's Extremes

State Highs State Lows

Community

WunderPhotos

Upload Photos

1,755,081 photos uploaded!

Nearby

Snow Depth

Station Depth Elevation
No new snow has been reported.

Earthquake Activity

City Distance Mag. Time & Date
No recent earthquake activity has been reported nearby.
Minimum magnitude displayed is 2.5.

Coastal Water Temperatures

Place Temperature
Marblehead, OH 66.0 °F

Nearby Weather Stations